createdAt,value
2018-04-19T00:00:08.155Z,16.53
2018-04-19T00:01:08.146Z,16.68
2018-04-19T00:02:08.133Z,16.57
2018-04-19T00:03:08.115Z,16.61
2018-04-19T00:04:08.100Z,16.58
2018-04-19T00:05:08.086Z,16.57
2018-04-19T00:06:08.074Z,16.56
2018-04-19T00:07:08.065Z,16.61
2018-04-19T00:08:08.043Z,16.56
2018-04-19T00:09:08.028Z,16.61
2018-04-19T00:10:08.021Z,16.58
2018-04-19T00:11:08.006Z,16.64
2018-04-19T00:12:07.989Z,16.52
2018-04-19T00:13:07.973Z,16.33
2018-04-19T00:14:07.958Z,16.09
2018-04-19T00:15:07.949Z,15.87
2018-04-19T00:16:07.930Z,15.57
2018-04-19T00:17:07.929Z,15.53
2018-04-19T00:18:07.907Z,15.34
2018-04-19T00:19:07.887Z,15.11
2018-04-19T00:20:07.879Z,15.17
2018-04-19T00:21:07.860Z,15.17
2018-04-19T00:22:07.851Z,15.23
2018-04-19T00:23:07.831Z,15.16
2018-04-19T00:24:07.817Z,15.23
2018-04-19T00:25:07.802Z,15.31
2018-04-19T00:26:07.792Z,15.25
2018-04-19T00:27:07.779Z,15.29
2018-04-19T00:28:07.760Z,15.28
2018-04-19T00:29:07.744Z,15.38
2018-04-19T00:30:07.732Z,15.36
2018-04-19T00:31:07.721Z,15.44
2018-04-19T00:32:07.703Z,15.47
2018-04-19T00:33:07.688Z,15.47
2018-04-19T00:34:07.675Z,15.53
2018-04-19T00:35:07.659Z,15.54
2018-04-19T00:36:07.651Z,15.60
2018-04-19T00:37:07.635Z,15.65
2018-04-19T00:38:07.621Z,15.71
2018-04-19T00:39:07.611Z,15.69
2018-04-19T00:40:07.592Z,15.78
2018-04-19T00:41:07.574Z,15.83
2018-04-19T00:42:07.560Z,15.87
2018-04-19T00:43:07.552Z,15.82
2018-04-19T00:44:07.529Z,15.83
2018-04-19T00:45:07.518Z,15.89
2018-04-19T00:46:07.502Z,15.83
2018-04-19T00:47:07.489Z,15.82
2018-04-19T00:48:07.473Z,15.83
2018-04-19T00:49:07.463Z,15.82
2018-04-19T00:50:07.449Z,15.69
2018-04-19T00:51:07.431Z,15.78
2018-04-19T00:52:07.416Z,15.82
2018-04-19T00:53:07.399Z,15.75
2018-04-19T00:54:07.386Z,15.80
2018-04-19T00:55:07.376Z,15.71
2018-04-19T00:56:07.369Z,15.83
2018-04-19T00:57:07.342Z,15.80
2018-04-19T00:58:07.329Z,15.82
2018-04-19T00:59:07.313Z,15.75
2018-04-19T01:00:07.306Z,15.74
2018-04-19T01:01:07.289Z,15.75
2018-04-19T01:02:07.272Z,15.72
2018-04-19T01:03:07.269Z,15.69
2018-04-19T01:04:07.242Z,15.75
2018-04-19T01:05:07.228Z,15.75
2018-04-19T01:06:07.223Z,15.67
2018-04-19T01:07:07.200Z,15.64
2018-04-19T01:08:07.187Z,15.56
2018-04-19T01:09:07.170Z,15.56
2018-04-19T01:10:07.154Z,15.50
2018-04-19T01:11:07.139Z,15.43
2018-04-19T01:12:07.125Z,15.32
2018-04-19T01:13:07.109Z,15.20
2018-04-19T01:14:07.100Z,15.10
2018-04-19T01:15:07.082Z,15.13
2018-04-19T01:16:07.067Z,15.01
2018-04-19T01:17:07.053Z,15.10
2018-04-19T01:18:07.041Z,15.17
2018-04-19T01:19:07.034Z,15.16
2018-04-19T01:20:07.014Z,15.11
2018-04-19T01:21:06.997Z,15.25
2018-04-19T01:22:06.983Z,15.28
2018-04-19T01:23:06.968Z,15.27
2018-04-19T01:24:06.950Z,15.36
2018-04-19T01:25:06.939Z,15.46
2018-04-19T01:26:06.922Z,15.43
2018-04-19T01:27:06.910Z,15.43
2018-04-19T01:28:06.890Z,15.50
2018-04-19T01:29:06.882Z,15.50
2018-04-19T01:30:06.862Z,15.53
2018-04-19T01:31:06.849Z,15.47
2018-04-19T01:32:06.833Z,15.49
2018-04-19T01:33:06.821Z,15.62
2018-04-19T01:34:06.806Z,15.56
2018-04-19T01:35:06.796Z,15.64
2018-04-19T01:36:06.779Z,15.47
2018-04-19T01:37:06.771Z,15.62
2018-04-19T01:38:06.747Z,15.56
2018-04-19T01:39:06.734Z,15.57
2018-04-19T01:40:06.720Z,15.50
2018-04-19T01:41:06.702Z,15.47
2018-04-19T01:42:06.688Z,15.47
2018-04-19T01:43:06.673Z,15.39
2018-04-19T01:44:06.661Z,15.32
2018-04-19T01:45:06.644Z,15.35
2018-04-19T01:46:06.629Z,15.39
2018-04-19T01:47:06.616Z,15.36
2018-04-19T01:48:06.601Z,15.28
2018-04-19T01:49:06.589Z,15.31
2018-04-19T01:50:06.578Z,15.27
2018-04-19T01:51:06.558Z,15.29
2018-04-19T01:52:06.543Z,15.29
2018-04-19T01:53:06.527Z,15.20
2018-04-19T01:54:06.511Z,15.19
2018-04-19T01:55:06.496Z,15.19
2018-04-19T01:56:06.524Z,15.11
2018-04-19T01:57:06.470Z,15.11
2018-04-19T01:58:06.456Z,15.13
2018-04-19T01:59:06.441Z,15.03
2018-04-19T02:00:06.425Z,15.03
2018-04-19T02:01:06.409Z,14.99
2018-04-19T02:02:06.397Z,15.06
2018-04-19T02:03:06.381Z,15.07
2018-04-19T02:04:06.368Z,14.98
2018-04-19T02:05:06.349Z,15.03
2018-04-19T02:06:06.333Z,14.99
2018-04-19T02:07:06.338Z,15.06
2018-04-19T02:08:06.306Z,15.09
2018-04-19T02:09:06.290Z,15.11
2018-04-19T02:10:06.277Z,15.01
2018-04-19T02:11:06.262Z,15.11
2018-04-19T02:12:06.250Z,15.11
2018-04-19T02:13:06.232Z,15.07
2018-04-19T02:14:06.216Z,15.11
2018-04-19T02:15:06.200Z,15.06
2018-04-19T02:16:06.188Z,15.07
2018-04-19T02:17:06.170Z,15.06
2018-04-19T02:18:06.157Z,15.13
2018-04-19T02:19:06.195Z,15.07
2018-04-19T02:20:06.127Z,15.10
2018-04-19T02:21:06.113Z,15.03
2018-04-19T02:22:06.102Z,15.07
2018-04-19T02:23:06.080Z,15.07
2018-04-19T02:24:06.066Z,15.06
2018-04-19T02:25:06.057Z,15.03
2018-04-19T02:26:06.039Z,15.09
2018-04-19T02:27:06.021Z,15.07
2018-04-19T02:28:06.010Z,15.02
2018-04-19T02:29:05.992Z,15.09
2018-04-19T02:30:05.976Z,14.95
2018-04-19T02:31:05.968Z,14.98
2018-04-19T02:32:05.954Z,14.94
2018-04-19T02:33:05.941Z,14.95
2018-04-19T02:34:05.919Z,14.96
2018-04-19T02:35:05.908Z,14.89
2018-04-19T02:36:05.889Z,14.88
2018-04-19T02:37:05.874Z,14.83
2018-04-19T02:38:05.862Z,14.78
2018-04-19T02:39:05.843Z,14.80
2018-04-19T02:40:05.826Z,14.78
2018-04-19T02:41:05.818Z,14.73
2018-04-19T02:42:05.801Z,14.73
2018-04-19T02:43:05.783Z,14.73
2018-04-19T02:44:05.783Z,14.72
2018-04-19T02:45:05.755Z,14.77
2018-04-19T02:46:05.744Z,14.80
2018-04-19T02:47:05.723Z,14.75
2018-04-19T02:48:05.711Z,14.84
2018-04-19T02:49:05.692Z,14.77
2018-04-19T02:50:05.681Z,14.75
2018-04-19T02:51:05.663Z,14.73
2018-04-19T02:52:05.644Z,14.83
2018-04-19T02:53:05.633Z,14.77
2018-04-19T02:54:05.619Z,14.62
2018-04-19T02:55:05.604Z,14.60
2018-04-19T02:56:05.591Z,14.60
2018-04-19T02:57:05.574Z,14.52
2018-04-19T02:58:05.559Z,14.69
2018-04-19T02:59:05.546Z,14.54
2018-04-19T03:00:05.531Z,14.65
2018-04-19T03:01:05.522Z,14.62
2018-04-19T03:02:05.498Z,14.65
2018-04-19T03:03:05.480Z,14.62
2018-04-19T03:04:05.472Z,14.69
2018-04-19T03:05:05.449Z,14.64
2018-04-19T03:06:05.440Z,14.52
2018-04-19T03:07:05.421Z,14.61
2018-04-19T03:08:05.408Z,14.60
2018-04-19T03:09:05.397Z,14.55
2018-04-19T03:10:05.379Z,14.60
2018-04-19T03:11:05.363Z,14.54
2018-04-19T03:12:05.356Z,14.57
2018-04-19T03:13:05.332Z,14.65
2018-04-19T03:14:05.319Z,14.54
2018-04-19T03:15:05.300Z,14.61
2018-04-19T03:16:05.290Z,14.55
2018-04-19T03:17:05.270Z,14.57
2018-04-19T03:18:05.257Z,14.54
2018-04-19T03:19:05.239Z,14.52
2018-04-19T03:20:05.230Z,14.46
2018-04-19T03:21:05.208Z,14.50
2018-04-19T03:22:05.198Z,14.45
2018-04-19T03:23:05.180Z,14.42
2018-04-19T03:24:05.163Z,14.36
2018-04-19T03:25:05.152Z,14.39
2018-04-19T03:26:05.132Z,14.35
2018-04-19T03:27:05.169Z,14.35
2018-04-19T03:28:05.100Z,14.35
2018-04-19T03:29:05.135Z,14.35
2018-04-19T03:30:05.074Z,14.33
2018-04-19T03:31:05.066Z,14.28
2018-04-19T03:32:05.044Z,14.24
2018-04-19T03:33:05.030Z,14.36
2018-04-19T03:34:05.011Z,14.21
2018-04-19T03:35:04.999Z,14.22
2018-04-19T03:36:04.979Z,14.33
2018-04-19T03:37:04.969Z,14.33
2018-04-19T03:38:04.950Z,14.22
2018-04-19T03:39:04.935Z,14.20
2018-04-19T03:40:04.920Z,14.15
2018-04-19T03:41:04.937Z,14.03
2018-04-19T03:42:04.889Z,14.10
2018-04-19T03:43:04.873Z,13.99
2018-04-19T03:44:04.863Z,13.91
2018-04-19T03:45:04.842Z,13.88
2018-04-19T03:46:04.833Z,13.71
2018-04-19T03:47:04.810Z,13.73
2018-04-19T03:48:04.799Z,13.69
2018-04-19T03:49:04.780Z,13.66
2018-04-19T03:50:04.765Z,13.64
2018-04-19T03:51:04.749Z,13.71
2018-04-19T03:52:04.741Z,13.78
2018-04-19T03:53:04.720Z,13.70
2018-04-19T03:54:04.708Z,13.81
2018-04-19T03:55:04.688Z,13.70
2018-04-19T03:56:04.669Z,13.78
2018-04-19T03:57:04.664Z,13.87
2018-04-19T03:58:04.646Z,13.84
2018-04-19T03:59:04.630Z,13.87
2018-04-19T04:00:04.608Z,13.71
2018-04-19T04:01:04.649Z,13.73
2018-04-19T04:02:04.580Z,13.59
2018-04-19T04:03:04.565Z,13.42
2018-04-19T04:04:04.550Z,13.29
2018-04-19T04:05:04.537Z,13.19
2018-04-19T04:06:04.517Z,13.05
2018-04-19T04:07:04.501Z,12.93
2018-04-19T04:08:04.486Z,12.95
2018-04-19T04:09:04.475Z,13.04
2018-04-19T04:10:04.454Z,13.10
2018-04-19T04:11:04.440Z,13.10
2018-04-19T04:12:04.424Z,13.14
2018-04-19T04:13:04.408Z,13.17
2018-04-19T04:14:04.397Z,13.19
2018-04-19T04:15:04.379Z,13.22
2018-04-19T04:16:04.362Z,13.20
2018-04-19T04:17:04.346Z,13.17
2018-04-19T04:18:04.334Z,13.12
2018-04-19T04:19:04.318Z,13.11
2018-04-19T04:20:04.299Z,13.05
2018-04-19T04:21:04.284Z,13.03
2018-04-19T04:22:04.270Z,13.01
2018-04-19T04:23:04.259Z,12.90
2018-04-19T04:24:04.242Z,12.85
2018-04-19T04:25:04.224Z,12.77
2018-04-19T04:26:04.213Z,12.86
2018-04-19T04:27:04.203Z,12.85
2018-04-19T04:28:04.175Z,12.87
2018-04-19T04:29:04.165Z,12.86
2018-04-19T04:30:04.152Z,12.87
2018-04-19T04:31:04.162Z,12.87
2018-04-19T04:32:04.119Z,12.83
2018-04-19T04:33:04.100Z,12.82
2018-04-19T04:34:04.081Z,12.85
2018-04-19T04:35:04.069Z,13.04
2018-04-19T04:36:04.053Z,12.93
2018-04-19T04:37:04.040Z,13.08
2018-04-19T04:38:04.020Z,13.14
2018-04-19T04:39:04.006Z,13.20
2018-04-19T04:40:03.989Z,13.20
2018-04-19T04:41:03.974Z,13.07
2018-04-19T04:42:03.956Z,13.14
2018-04-19T04:43:03.942Z,13.12
2018-04-19T04:44:03.924Z,13.20
2018-04-19T04:45:03.909Z,13.25
2018-04-19T04:46:03.899Z,13.22
2018-04-19T04:47:03.882Z,13.20
2018-04-19T04:48:03.860Z,13.23
2018-04-19T04:49:03.851Z,13.30
2018-04-19T04:50:03.837Z,13.30
2018-04-19T04:51:03.818Z,13.39
2018-04-19T04:52:03.809Z,13.36
2018-04-19T04:53:03.779Z,13.44
2018-04-19T04:54:03.808Z,13.42
2018-04-19T04:55:03.752Z,13.48
2018-04-19T04:56:03.734Z,13.42
2018-04-19T04:57:03.719Z,13.45
2018-04-19T04:58:03.701Z,13.51
2018-04-19T04:59:03.689Z,13.62
2018-04-19T05:00:03.732Z,13.51
2018-04-19T05:01:03.659Z,13.69
2018-04-19T05:02:03.644Z,13.59
2018-04-19T05:03:03.621Z,13.52
2018-04-19T05:04:03.609Z,13.62
2018-04-19T05:05:03.591Z,13.48
2018-04-19T05:06:03.578Z,13.51
2018-04-19T05:07:03.565Z,13.57
2018-04-19T05:08:03.551Z,13.51
2018-04-19T05:09:03.534Z,13.59
2018-04-19T05:10:03.516Z,13.57
2018-04-19T05:11:03.497Z,13.52
2018-04-19T05:12:03.480Z,13.59
2018-04-19T05:13:03.476Z,13.55
2018-04-19T05:14:03.456Z,13.55
2018-04-19T05:15:03.441Z,13.62
2018-04-19T05:16:03.420Z,13.62
2018-04-19T05:17:03.409Z,13.67
2018-04-19T05:18:03.390Z,13.64
2018-04-19T05:19:03.372Z,13.66
2018-04-19T05:20:03.361Z,13.73
2018-04-19T05:21:03.341Z,13.75
2018-04-19T05:22:03.329Z,13.70
2018-04-19T05:23:03.310Z,13.69
2018-04-19T05:24:03.293Z,13.77
2018-04-19T05:25:03.281Z,13.78
2018-04-19T05:26:03.265Z,13.73
2018-04-19T05:27:03.247Z,13.60
2018-04-19T05:28:03.232Z,13.66
2018-04-19T05:29:03.216Z,13.54
2018-04-19T05:30:03.200Z,13.60
2018-04-19T05:31:03.187Z,13.60
2018-04-19T05:32:03.170Z,13.70
2018-04-19T05:33:03.159Z,13.73
2018-04-19T05:34:03.139Z,13.81
2018-04-19T05:35:03.125Z,13.81
2018-04-19T05:36:03.106Z,13.79
2018-04-19T05:37:03.091Z,13.89
2018-04-19T05:38:03.077Z,13.96
2018-04-19T05:39:03.064Z,14.02
2018-04-19T05:40:03.044Z,14.09
2018-04-19T05:41:03.042Z,13.96
2018-04-19T05:42:03.011Z,14.04
2018-04-19T05:43:03.002Z,14.14
2018-04-19T05:44:02.980Z,14.22
2018-04-19T05:45:02.968Z,14.20
2018-04-19T05:46:02.949Z,14.17
2018-04-19T05:47:02.937Z,14.24
2018-04-19T05:48:02.918Z,14.24
2018-04-19T05:49:02.912Z,14.18
2018-04-19T05:50:02.896Z,14.24
2018-04-19T05:51:02.868Z,14.18
2018-04-19T05:52:02.854Z,14.20
2018-04-19T05:53:02.851Z,14.15
2018-04-19T05:54:02.824Z,14.09
2018-04-19T05:55:02.814Z,14.09
2018-04-19T05:56:02.793Z,14.12
2018-04-19T05:57:02.781Z,14.12
2018-04-19T05:58:02.767Z,14.22
2018-04-19T05:59:02.747Z,14.24
2018-04-19T06:00:02.733Z,14.21
2018-04-19T06:01:02.718Z,14.28
2018-04-19T06:02:02.701Z,14.43
2018-04-19T06:03:02.720Z,14.43
2018-04-19T06:04:02.676Z,14.58
2018-04-19T06:05:02.658Z,14.61
2018-04-19T06:06:02.638Z,14.60
2018-04-19T06:07:02.626Z,14.69
2018-04-19T06:08:02.611Z,14.77
2018-04-19T06:09:02.590Z,14.81
2018-04-19T06:10:02.582Z,14.86
2018-04-19T06:11:02.560Z,15.01
2018-04-19T06:12:02.549Z,14.99
2018-04-19T06:13:02.529Z,15.09
2018-04-19T06:14:02.513Z,15.21
2018-04-19T06:15:02.501Z,15.23
2018-04-19T06:16:02.483Z,15.20
2018-04-19T06:17:02.471Z,15.28
2018-04-19T06:18:02.451Z,15.31
2018-04-19T06:19:02.439Z,15.38
2018-04-19T06:20:02.424Z,15.49
2018-04-19T06:21:02.407Z,15.51
2018-04-19T06:22:02.391Z,15.46
2018-04-19T06:23:02.377Z,15.51
2018-04-19T06:24:02.367Z,15.46
2018-04-19T06:25:02.345Z,15.60
2018-04-19T06:26:02.328Z,15.62
2018-04-19T06:27:02.314Z,15.68
2018-04-19T06:28:02.305Z,15.56
2018-04-19T06:29:02.286Z,15.68
2018-04-19T06:30:02.270Z,15.71
2018-04-19T06:31:02.254Z,15.71
2018-04-19T06:32:02.243Z,15.75
2018-04-19T06:33:02.228Z,15.83
2018-04-19T06:34:02.213Z,15.94
2018-04-19T06:35:02.196Z,15.93
2018-04-19T06:36:02.213Z,16.01
2018-04-19T06:37:02.171Z,16.01
2018-04-19T06:38:02.150Z,16.05
2018-04-19T06:39:02.129Z,16.14
2018-04-19T06:40:02.125Z,16.09
2018-04-19T06:41:02.107Z,16.23
2018-04-19T06:42:02.088Z,16.23
2018-04-19T06:43:02.068Z,16.20
2018-04-19T06:44:02.052Z,16.24
2018-04-19T06:45:02.039Z,16.24
2018-04-19T06:46:02.028Z,16.28
2018-04-19T06:47:02.011Z,16.41
2018-04-19T06:48:02.004Z,16.34
2018-04-19T06:49:01.981Z,16.33
2018-04-19T06:50:01.966Z,16.39
2018-04-19T06:51:01.949Z,16.52
2018-04-19T06:52:01.939Z,16.58
2018-04-19T06:53:01.920Z,16.57
2018-04-19T06:54:01.922Z,16.73
2018-04-19T06:55:01.893Z,16.66
2018-04-19T06:56:01.880Z,16.78
2018-04-19T06:57:01.863Z,16.83
2018-04-19T06:58:01.860Z,16.81
2018-04-19T06:59:01.830Z,16.85
2018-04-19T07:00:01.812Z,16.83
2018-04-19T07:01:01.831Z,16.88
2018-04-19T07:02:01.788Z,17.00
2018-04-19T07:03:01.778Z,17.00
2018-04-19T07:04:01.756Z,17.08
2018-04-19T07:05:01.742Z,17.23
2018-04-19T07:06:01.731Z,17.21
2018-04-19T07:07:01.710Z,17.21
2018-04-19T07:08:01.709Z,17.30
2018-04-19T07:09:01.681Z,17.31
2018-04-19T07:10:01.673Z,17.44
2018-04-19T07:11:01.653Z,17.52
2018-04-19T07:12:01.638Z,17.58
2018-04-19T07:13:01.625Z,17.59
2018-04-19T07:14:01.612Z,17.70
2018-04-19T07:15:01.593Z,17.78
2018-04-19T07:16:01.578Z,17.92
2018-04-19T07:17:01.565Z,17.82
2018-04-19T07:18:01.559Z,17.99
2018-04-19T07:19:01.535Z,17.96
2018-04-19T07:20:01.520Z,17.97
2018-04-19T07:21:01.504Z,18.03
2018-04-19T07:22:01.501Z,18.21
2018-04-19T07:23:01.473Z,18.20
2018-04-19T07:24:01.465Z,18.15
2018-04-19T07:25:01.448Z,18.27
2018-04-19T07:26:01.435Z,18.36
2018-04-19T07:27:01.416Z,18.44
2018-04-19T07:28:01.402Z,18.48
2018-04-19T07:29:01.389Z,18.62
2018-04-19T07:30:01.376Z,18.55
2018-04-19T07:31:01.364Z,18.67
2018-04-19T07:32:01.344Z,18.69
2018-04-19T07:33:01.328Z,18.72
2018-04-19T07:34:01.318Z,18.80
2018-04-19T07:35:01.302Z,18.88
2018-04-19T07:36:01.286Z,18.90
2018-04-19T07:37:01.280Z,18.95
2018-04-19T07:38:01.261Z,19.08
2018-04-19T07:39:01.297Z,19.08
2018-04-19T07:40:01.229Z,19.31
2018-04-19T07:41:01.219Z,19.28
2018-04-19T07:42:01.207Z,19.39
2018-04-19T07:43:01.190Z,19.39
2018-04-19T07:44:01.180Z,19.46
2018-04-19T07:45:01.160Z,19.47
2018-04-19T07:46:01.185Z,19.61
2018-04-19T07:47:01.132Z,19.56
2018-04-19T07:48:01.120Z,19.66
2018-04-19T07:49:01.108Z,19.62
2018-04-19T07:50:01.089Z,19.74
2018-04-19T07:51:01.077Z,19.71
2018-04-19T07:52:01.061Z,19.86
2018-04-19T07:53:01.055Z,19.88
2018-04-19T07:54:01.056Z,20.02
2018-04-19T07:55:01.023Z,20.14
2018-04-19T07:56:01.006Z,20.26
2018-04-19T07:57:01.002Z,20.28
2018-04-19T07:58:01.001Z,20.28
2018-04-19T07:59:00.969Z,20.33
2018-04-19T08:00:00.951Z,20.48
2018-04-19T08:01:00.942Z,20.52
2018-04-19T08:02:00.927Z,20.51
2018-04-19T08:03:00.912Z,20.59
2018-04-19T08:04:00.897Z,20.67
2018-04-19T08:05:00.889Z,20.73
2018-04-19T08:06:00.873Z,20.80
2018-04-19T08:07:00.857Z,20.85
2018-04-19T08:08:00.847Z,20.92
2018-04-19T08:09:00.829Z,21.04
2018-04-19T08:10:00.821Z,21.06
2018-04-19T08:11:00.809Z,21.10
2018-04-19T08:12:00.796Z,21.07
2018-04-19T08:13:00.777Z,21.19
2018-04-19T08:14:00.767Z,21.12
2018-04-19T08:15:00.756Z,21.13
2018-04-19T08:16:00.740Z,21.19
2018-04-19T08:17:00.729Z,21.25
2018-04-19T08:18:00.716Z,21.29
2018-04-19T08:19:00.701Z,21.38
2018-04-19T08:20:00.687Z,21.40
2018-04-19T08:21:00.677Z,21.47
2018-04-19T08:22:00.660Z,21.56
2018-04-19T08:23:00.654Z,21.54
2018-04-19T08:24:00.639Z,21.67
2018-04-19T08:25:00.622Z,21.58
2018-04-19T08:26:00.610Z,21.71
2018-04-19T08:27:00.599Z,21.83
2018-04-19T08:28:00.592Z,21.86
2018-04-19T08:29:00.575Z,21.98
2018-04-19T08:30:00.559Z,21.98
2018-04-19T08:31:00.548Z,22.02
2018-04-19T08:32:00.533Z,21.92
2018-04-19T08:33:00.519Z,21.99
2018-04-19T08:34:00.517Z,21.99
2018-04-19T08:35:00.496Z,22.06
2018-04-19T08:36:00.486Z,22.12
2018-04-19T08:37:00.468Z,22.02
2018-04-19T08:38:00.457Z,22.00
2018-04-19T08:39:00.452Z,22.05
2018-04-19T08:40:00.443Z,22.07
2018-04-19T08:41:00.429Z,22.03
2018-04-19T08:42:00.409Z,22.07
2018-04-19T08:43:00.400Z,22.14
2018-04-19T08:44:00.392Z,22.18
2018-04-19T08:45:00.369Z,22.28
2018-04-19T08:46:00.361Z,22.24
2018-04-19T08:47:00.356Z,22.39
2018-04-19T08:48:00.340Z,22.35
2018-04-19T08:49:00.325Z,22.33
2018-04-19T08:50:00.311Z,22.43
2018-04-19T08:51:00.297Z,22.40
2018-04-19T08:52:00.284Z,22.39
2018-04-19T08:53:00.281Z,22.46
2018-04-19T08:54:00.261Z,22.62
2018-04-19T08:55:00.250Z,22.64
2018-04-19T08:56:00.239Z,22.79
2018-04-19T08:57:00.234Z,22.80
2018-04-19T08:58:00.213Z,22.86
2018-04-19T08:59:00.200Z,22.86
2018-04-19T09:00:00.191Z,22.88
2018-04-19T09:01:00.177Z,22.85
2018-04-19T09:02:00.169Z,22.85
2018-04-19T09:03:00.159Z,22.82
2018-04-19T09:04:00.145Z,22.90
2018-04-19T09:05:00.130Z,22.82
2018-04-19T09:06:00.121Z,22.97
2018-04-19T09:07:00.115Z,22.98
2018-04-19T09:08:00.117Z,23.15
2018-04-19T09:09:00.083Z,23.13
2018-04-19T09:10:00.075Z,23.12
2018-04-19T09:11:00.060Z,23.16
2018-04-19T09:12:00.050Z,23.12
2018-04-19T09:13:00.034Z,23.25
2018-04-19T09:14:00.026Z,23.23
2018-04-19T09:15:00.015Z,23.28
2018-04-19T09:15:59.998Z,23.22
2018-04-19T09:16:59.990Z,23.31
2018-04-19T09:17:59.979Z,23.38
2018-04-19T09:18:59.971Z,23.46
2018-04-19T09:19:59.956Z,23.57
2018-04-19T09:20:59.942Z,23.58
2018-04-19T09:21:59.935Z,23.53
2018-04-19T09:22:59.923Z,23.53
2018-04-19T09:23:59.911Z,23.60
2018-04-19T09:24:59.901Z,23.61
2018-04-19T09:25:59.890Z,23.73
2018-04-19T09:26:59.879Z,23.80
2018-04-19T09:27:59.865Z,23.87
2018-04-19T09:28:59.854Z,23.91
2018-04-19T09:29:59.844Z,23.91
2018-04-19T09:30:59.835Z,23.98
2018-04-19T09:31:59.826Z,24.03
2018-04-19T09:32:59.807Z,24.20
2018-04-19T09:33:59.799Z,24.30
2018-04-19T09:34:59.787Z,24.25
2018-04-19T09:35:59.773Z,24.25
2018-04-19T09:36:59.764Z,24.27
2018-04-19T09:37:59.750Z,24.28
2018-04-19T09:38:59.741Z,24.42
2018-04-19T09:39:59.732Z,24.37
2018-04-19T09:40:59.765Z,24.50
2018-04-19T09:41:59.708Z,24.49
2018-04-19T09:42:59.694Z,24.52
2018-04-19T09:43:59.690Z,24.57
2018-04-19T09:44:59.672Z,24.62
2018-04-19T09:45:59.663Z,24.80
2018-04-19T09:46:59.650Z,24.91
2018-04-19T09:47:59.640Z,24.77
2018-04-19T09:48:59.629Z,24.77
2018-04-19T09:49:59.619Z,24.81
2018-04-19T09:50:59.605Z,24.88
2018-04-19T09:51:59.597Z,24.78
2018-04-19T09:52:59.584Z,24.88
2018-04-19T09:53:59.646Z,24.96
2018-04-19T09:54:59.576Z,24.93
2018-04-19T09:55:59.550Z,24.98
2018-04-19T09:56:59.539Z,24.93
2018-04-19T09:57:59.529Z,25.00
2018-04-19T09:58:59.525Z,25.05
2018-04-19T09:59:59.513Z,25.02
2018-04-19T10:00:59.500Z,25.15
2018-04-19T10:01:59.489Z,25.13
2018-04-19T10:02:59.475Z,25.08
2018-04-19T10:03:59.465Z,25.10
2018-04-19T10:04:59.460Z,25.13
2018-04-19T10:05:59.450Z,25.25
2018-04-19T10:06:59.440Z,25.39
2018-04-19T10:07:59.425Z,25.43
2018-04-19T10:08:59.415Z,25.33
2018-04-19T10:09:59.409Z,25.38
2018-04-19T10:10:59.390Z,25.36
2018-04-19T10:11:59.387Z,25.45
2018-04-19T10:12:59.370Z,25.46
2018-04-19T10:13:59.365Z,25.45
2018-04-19T10:14:59.349Z,25.52
2018-04-19T10:15:59.349Z,25.54
2018-04-19T10:16:59.330Z,25.57
2018-04-19T10:17:59.320Z,25.62
2018-04-19T10:18:59.310Z,25.55
2018-04-19T10:19:59.297Z,25.64
2018-04-19T10:20:59.295Z,25.62
2018-04-19T10:21:59.282Z,25.61
2018-04-19T10:22:59.267Z,25.57
2018-04-19T10:23:59.260Z,25.47
2018-04-19T10:24:59.250Z,25.42
2018-04-19T10:25:59.243Z,25.35
2018-04-19T10:26:59.234Z,25.32
2018-04-19T10:27:59.224Z,25.35
2018-04-19T10:28:59.212Z,25.46
2018-04-19T10:29:59.202Z,25.43
2018-04-19T10:30:59.188Z,25.45
2018-04-19T10:31:59.174Z,25.42
2018-04-19T10:32:59.174Z,25.46
2018-04-19T10:33:59.159Z,25.50
2018-04-19T10:34:59.149Z,25.43
2018-04-19T10:35:59.131Z,25.55
2018-04-19T10:36:59.126Z,25.62
2018-04-19T10:37:59.122Z,25.67
2018-04-19T10:38:59.103Z,25.76
2018-04-19T10:39:59.093Z,25.90
2018-04-19T10:40:59.084Z,26.01
2018-04-19T10:41:59.071Z,25.98
2018-04-19T10:42:59.066Z,25.97
2018-04-19T10:43:59.054Z,26.07
2018-04-19T10:44:59.048Z,26.07
2018-04-19T10:45:59.031Z,26.09
2018-04-19T10:46:59.025Z,26.18
2018-04-19T10:47:59.015Z,26.10
2018-04-19T10:48:59.002Z,26.10
2018-04-19T10:49:58.989Z,26.18
2018-04-19T10:50:58.985Z,26.26
2018-04-19T10:51:58.976Z,26.10
2018-04-19T10:52:58.971Z,26.01
2018-04-19T10:53:58.956Z,26.10
2018-04-19T10:54:58.953Z,26.07
2018-04-19T10:55:58.939Z,26.07
2018-04-19T10:56:58.939Z,26.05
2018-04-19T10:57:58.915Z,26.10
2018-04-19T10:58:58.910Z,25.98
2018-04-19T10:59:58.901Z,26.05
2018-04-19T11:00:58.939Z,26.12
2018-04-19T11:01:58.878Z,26.05
2018-04-19T11:02:58.882Z,26.17
2018-04-19T11:03:58.858Z,26.21
2018-04-19T11:04:58.846Z,26.10
2018-04-19T11:05:58.837Z,26.20
2018-04-19T11:06:58.832Z,26.12
2018-04-19T11:07:58.825Z,26.21
2018-04-19T11:08:58.805Z,26.12
2018-04-19T11:09:58.801Z,26.10
2018-04-19T11:10:58.790Z,26.17
2018-04-19T11:11:58.776Z,26.09
2018-04-19T11:12:58.766Z,26.26
2018-04-19T11:13:58.759Z,26.33
2018-04-19T11:14:58.753Z,26.26
2018-04-19T11:15:58.782Z,26.28
2018-04-19T11:16:58.730Z,26.32
2018-04-19T11:17:58.717Z,26.28
2018-04-19T11:18:58.710Z,26.20
2018-04-19T11:19:58.698Z,26.06
2018-04-19T11:20:58.688Z,26.13
2018-04-19T11:21:58.678Z,26.20
2018-04-19T11:22:58.672Z,26.17
2018-04-19T11:23:58.659Z,26.21
2018-04-19T11:24:58.653Z,26.17
2018-04-19T11:25:58.641Z,26.18
2018-04-19T11:26:58.630Z,26.18
2018-04-19T11:27:58.624Z,26.12
2018-04-19T11:28:58.612Z,26.18
2018-04-19T11:29:58.602Z,26.30
2018-04-19T11:30:58.630Z,26.35
2018-04-19T11:31:58.587Z,26.26
2018-04-19T11:32:58.573Z,26.36
2018-04-19T11:33:58.567Z,26.36
2018-04-19T11:34:58.560Z,26.28
2018-04-19T11:35:58.547Z,26.29
2018-04-19T11:36:58.538Z,26.29
2018-04-19T11:37:58.524Z,26.32
2018-04-19T11:38:58.515Z,26.33
2018-04-19T11:39:58.506Z,26.37
2018-04-19T11:40:58.502Z,26.37
2018-04-19T11:41:58.486Z,26.28
2018-04-19T11:42:58.479Z,26.28
2018-04-19T11:43:58.501Z,26.30
2018-04-19T11:44:58.461Z,26.36
2018-04-19T11:45:58.458Z,26.39
2018-04-19T11:46:58.444Z,26.40
2018-04-19T11:47:58.479Z,26.39
2018-04-19T11:48:58.420Z,26.35
2018-04-19T11:49:58.412Z,26.28
2018-04-19T11:50:58.403Z,26.21
2018-04-19T11:51:58.396Z,26.21
2018-04-19T11:52:58.385Z,26.20
2018-04-19T11:53:58.374Z,26.29
2018-04-19T11:54:58.365Z,26.33
2018-04-19T11:55:58.353Z,26.28
2018-04-19T11:56:58.348Z,26.33
2018-04-19T11:57:58.345Z,26.35
2018-04-19T11:58:58.332Z,26.33
2018-04-19T11:59:58.320Z,26.35
2018-04-19T12:00:58.318Z,26.28
2018-04-19T12:01:58.300Z,26.18
2018-04-19T12:02:58.291Z,26.29
2018-04-19T12:03:58.280Z,26.35
2018-04-19T12:04:58.271Z,26.39
2018-04-19T12:05:58.265Z,26.35
2018-04-19T12:06:58.252Z,26.40
2018-04-19T12:07:58.242Z,26.40
2018-04-19T12:08:58.236Z,26.40
2018-04-19T12:09:58.223Z,26.39
2018-04-19T12:10:58.221Z,26.37
2018-04-19T12:11:58.205Z,26.39
2018-04-19T12:12:58.200Z,26.39
2018-04-19T12:13:58.187Z,26.50
2018-04-19T12:14:58.174Z,26.57
2018-04-19T12:15:58.166Z,26.57
2018-04-19T12:16:58.158Z,26.72
2018-04-19T12:17:58.160Z,26.80
2018-04-19T12:18:58.136Z,26.73
2018-04-19T12:19:58.136Z,26.66
2018-04-19T12:20:58.119Z,26.60
2018-04-19T12:21:58.110Z,26.60
2018-04-19T12:22:58.111Z,26.72
2018-04-19T12:23:58.089Z,26.80
2018-04-19T12:24:58.081Z,26.77
2018-04-19T12:25:58.075Z,26.76
2018-04-19T12:26:58.063Z,26.77
2018-04-19T12:27:58.052Z,26.87
2018-04-19T12:28:58.041Z,26.76
2018-04-19T12:29:58.030Z,26.87
2018-04-19T12:30:58.026Z,26.99
2018-04-19T12:31:58.023Z,26.94
2018-04-19T12:32:58.012Z,27.07
2018-04-19T12:33:58.005Z,27.03
2018-04-19T12:34:57.987Z,27.07
2018-04-19T12:35:57.981Z,27.03
2018-04-19T12:36:57.976Z,26.95
2018-04-19T12:37:57.962Z,26.97
2018-04-19T12:38:57.952Z,26.99
2018-04-19T12:39:57.941Z,26.99
2018-04-19T12:40:57.932Z,26.97
2018-04-19T12:41:57.925Z,26.91
2018-04-19T12:42:57.916Z,27.04
2018-04-19T12:43:57.909Z,26.99
2018-04-19T12:44:57.898Z,27.06
2018-04-19T12:45:57.892Z,27.09
2018-04-19T12:46:57.889Z,27.09
2018-04-19T12:47:57.873Z,27.18
2018-04-19T12:48:57.856Z,27.18
2018-04-19T12:49:57.846Z,27.25
2018-04-19T12:50:57.842Z,27.21
2018-04-19T12:51:57.837Z,27.22